Historyczne dane pomiarowe

Dodano dane terminowe – wersja testowa.

Dane z okresu 1951-2019

Wersja bazy: 1.34 [2019-03-16, lista zmian], aktualizacja planowana na 2019-04-15

Dane meteo z obszaru Polski uzyskane na podstawie danych udostępnionych przez Instytut Meteorologii i Gospodarki Wodnej – Państwowy Instytut Badawczy.

 

Wybierz Datę:    

       

TemperaturaWilgotnośćWiatrCiśnienieOpadyŚniegCzas trwania zjawisk
 Stacja t tx tn tng RH VA  wxwx mslp ppp RRR   cm mm wxwxwxwxwxwxwx
1999-08-14 14.1 19.5 8.6- 78.0- 5.0 3.7---- 0.0------------
1999-08-13 15.0 21.0 9.8- 83.5- 5.7 4.7---- 0.0------------
1999-08-12 16.5 22.0 11.4- 84.0- 8.0 4.7---- 0.0------------
1999-08-11 18.9 23.5 13.3- 85.5- 5.3 2.7---- 11.5------------
1999-08-10 20.5 28.5 13.8- 87.3- 8.0 1.3---- 11.7------------
1999-08-09 20.3 26.0 13.8- 71.5- 1.0 2.0---- 0.0------------
1999-08-08 21.2 29.0 13.8- 83.3- 2.7 1.3---- 0.0------------
1999-08-07 21.0 29.5 12.3- 79.5- 0.0 1.3---- 0.0------------
1999-08-06 19.9 26.7 15.4- 78.3- 0.0 1.7---- 0.0------------
1999-08-05 17.6 26.6 8.6- 80.0- 2.7 1.7---- 0.0------------
1999-08-04 17.2 25.0 9.3- 81.0- 0.0 1.7---- 0.0------------
1999-08-03 17.0 24.0 10.8- 85.3- 7.0 2.0---- 0.0------------
1999-08-02 16.8 21.5 12.3- 89.8- 8.0 2.7---- 0.8------------
1999-08-01 18.8 24.0 13.8- 83.0- 3.7 2.7---- 2.8------------
1999-07-31 18.7 25.5 11.3- 75.0- 0.0 1.7---- 0.0------------
1999-07-30 18.7 25.5 12.3- 78.5- 1.0 1.7---- 0.0------------
1999-07-29 18.2 24.5 12.3- 78.8- 1.3 1.7---- 0.0------------
1999-07-28 17.9 24.5 13.8- 80.0- 8.0 1.7---- 3.0------------
1999-07-27 20.7 25.0 17.4- 83.5- 8.0 2.0---- 1.2------------
1999-07-26 20.9 28.0 13.8- 80.8- 2.3 2.7---- 0.0------------
1999-07-25 19.0 25.0 12.8- 81.0- 1.0 2.3---- 0.0------------
1999-07-24 17.3 22.5 12.8- 89.0- 7.0 2.7---- 0.0------------
1999-07-23 18.1 25.0 13.3- 82.0- 8.0 2.7---- 8.1------------
1999-07-22 20.8 25.0 16.4- 77.5- 4.7 3.0---- 3.1------------
1999-07-21 22.5 29.9 14.9- 74.5- 1.7 2.7---- 0.0------------
1999-07-20 22.1 29.5 12.8- 80.0- 0.0 2.0---- 0.0------------
1999-07-19 21.0 28.0 13.8- 72.0- 0.0 2.7---- 0.0------------
1999-07-18 18.2 26.0 11.0- 81.8- 0.0 2.3---- 0.0------------
1999-07-17 17.2 25.0 9.3- 85.3- 4.3 2.7---- 0.0------------
1999-07-16 16.7 22.0 10.8- 85.8- 6.0 5.7---- 0.0------------
1999-07-15 18.8 23.3 14.9- 78.5- 4.3 5.7---- 0.0------------
1999-07-14 20.6 27.5 12.8- 83.3- 5.7 3.7---- 2.8------------
1999-07-13 19.3 25.7 11.8- 85.3- 3.3 4.0---- 6.1------------
1999-07-12 22.3 27.8 15.9- 72.5- 4.0 3.0---- 1.4------------
1999-07-11 19.7 25.5 15.4- 74.3- 5.3 3.7---- 0.0------------
1999-07-10 20.2 24.6 17.4- 82.3- 6.3 7.3---- 0.0------------
1999-07-09 21.1 24.8 18.4- 85.8- 6.7 1.7---- 0.0------------
1999-07-08 23.4 27.2 17.9- 46.8- 6.3 1.0---- 6.4------------
1999-07-07 22.0 26.0 18.9- 89.0- 6.3 3.0---- 23.7------------
1999-07-06 25.3 32.9 17.9- 73.3- 2.0 3.0---- 0.0------------
1999-07-05 24.0 31.8 18.1- 78.3- 0.0 2.3---- 0.0------------
1999-07-04 23.2 28.8 17.1- 68.8- 0.0 0.7---- 0.0------------
1999-07-03 21.4 25.0 16.4- 79.5- 0.0 2.0---- 0.0------------
1999-07-02 20.3 24.8 14.4- 91.5- 0.0 2.0---- 0.0------------
1999-07-01 20.0 25.3 12.8- 86.0- 0.0 1.7---- 0.0------------
1999-06-30 20.7 24.8 15.4- 79.3- 1.0 2.7---- 0.0------------
1999-06-29 19.0 23.7 13.8- 80.3- 2.7 2.7---- 0.0------------
1999-06-28 19.1 26.9 11.3- 78.5- 3.7 1.3---- 0.0------------
1999-06-27 18.3 26.4 10.3- 77.5- 0.7 2.7---- 0.0------------
1999-06-26 15.3 23.5 7.9- 81.5- 1.0 2.3---- 0.0------------
1999-06-25 12.9 18.8 7.2- 86.8- 2.7 1.3---- 0.0------------
1999-06-24 10.9 13.3 8.7- 97.5- 8.0 1.7---- 0.2------------
1999-06-23 10.6 15.3 7.7- 85.8- 8.0 3.7---- 14.0------------
1999-06-22 13.9 19.0 7.7- 95.5- 8.0 3.7---- 44.4------------
1999-06-21 18.8 23.8 15.9- 83.5- 6.7 1.0---- 27.0------------
1999-06-20 17.5 22.8 12.3- 89.0- 6.7 2.0---- 9.5------------
1999-06-19 17.0 21.0 13.8- 87.3- 5.3 3.7---- 0.0------------
1999-06-18 17.6 24.3 12.4- 78.0- 3.7 2.7---- 11.7------------
1999-06-17 18.0 24.0 13.6- 88.5- 6.0 2.7---- 17.1------------
1999-06-16 17.7 21.8 14.4- 92.5- 8.0 4.0---- 0.0------------
296.6 ms

 

Źródłem pochodzenia danych jest Instytut Meteorologii i Gospodarki Wodnej – Państwowy Instytut Badawczy. Dane Instytutu Meteorologii i Gospodarki Wodnej – Państwowego Instytutu Badawczego zostały przetworzone.

Dane źródłowe można odnaleźć na stronie https://dane.imgw.pl